Time;durP1;ratioP1;P1;durP2;ratioP2;P2;SDS_P1;SDS_P2;PMS_P1;PMS_P2;Temp;Humidity;BMP_temperature;BMP_pressure;BME280_temperature;BME280_humidity;BME280_pressure;Samples;Min_cycle;Max_cycle;Signal;HPM_P1;HPM_P2
2020/12/04 00:02:09;;;;;;;7.85;3.03;;;6.90;93.40;;;;;;5030908;28;20025;-74
2020/12/04 00:04:34;;;;;;;8.07;3.08;;;7.00;93.40;;;;;;5030282;28;20025;-75
2020/12/04 00:07:01;;;;;;;9.18;3.22;;;7.00;93.40;;;;;;5030898;28;20072;-74
2020/12/04 00:09:26;;;;;;;7.72;3.00;;;6.90;93.30;;;;;;5031239;28;20029;-75
2020/12/04 00:11:53;;;;;;;4.80;1.90;;;6.90;93.30;;;;;;5032084;28;20029;-74
2020/12/04 00:14:18;;;;;;;6.57;2.55;;;7.00;93.30;;;;;;5032000;28;20028;-74
2020/12/04 00:16:44;;;;;;;5.18;1.75;;;7.00;93.30;;;;;;5021417;28;20029;-73
2020/12/04 00:19:10;;;;;;;7.55;2.85;;;7.00;93.30;;;;;;5011061;28;20476;-74
2020/12/04 00:21:36;;;;;;;7.57;2.75;;;7.00;93.30;;;;;;5010324;28;20046;-74
2020/12/04 00:24:02;;;;;;;6.45;2.75;;;7.00;93.30;;;;;;5011003;28;20058;-75
2020/12/04 00:26:27;;;;;;;5.15;2.33;;;7.00;93.30;;;;;;5011959;28;20030;-74
2020/12/04 00:28:53;;;;;;;7.00;2.65;;;7.00;93.30;;;;;;5012230;28;20026;-74
2020/12/04 00:31:19;;;;;;;4.88;2.13;;;6.90;93.20;;;;;;5012553;28;20029;-74
2020/12/04 00:33:45;;;;;;;8.27;3.30;;;7.00;93.30;;;;;;5010503;28;20825;-74
2020/12/04 00:36:11;;;;;;;4.53;2.22;;;7.00;93.30;;;;;;5014882;28;20052;-75
2020/12/04 00:38:37;;;;;;;9.48;2.22;;;7.00;93.20;;;;;;5014440;28;20432;-74
2020/12/04 00:41:03;;;;;;;6.78;2.30;;;7.00;93.20;;;;;;5015920;28;20101;-75
2020/12/04 00:43:29;;;;;;;2.45;1.73;;;7.00;93.20;;;;;;5014259;28;20075;-75
2020/12/04 00:45:55;;;;;;;5.18;2.60;;;7.00;93.20;;;;;;5014707;28;20086;-75
2020/12/04 00:48:21;;;;;;;5.85;2.63;;;7.00;93.10;;;;;;5016137;28;20037;-75
2020/12/04 00:50:46;;;;;;;8.32;3.65;;;7.00;93.10;;;;;;5015363;28;20021;-74
2020/12/04 00:53:12;;;;;;;6.85;2.78;;;7.00;93.10;;;;;;5014634;28;20026;-73
2020/12/04 00:55:38;;;;;;;6.32;2.33;;;7.00;93.10;;;;;;5013596;28;20061;-75
2020/12/04 00:58:04;;;;;;;7.07;2.40;;;7.00;93.10;;;;;;5015901;28;20084;-75
2020/12/04 01:00:30;;;;;;;5.10;2.20;;;7.00;93.10;;;;;;5013909;28;20040;-75
2020/12/04 01:02:56;;;;;;;4.43;2.25;;;7.00;93.10;;;;;;5016001;28;20025;-75
2020/12/04 01:05:22;;;;;;;6.90;2.67;;;7.00;93.10;;;;;;5015840;28;20032;-75
2020/12/04 01:07:47;;;;;;;9.35;3.13;;;7.00;93.10;;;;;;5013897;28;20342;-75
2020/12/04 01:10:13;;;;;;;4.28;2.28;;;7.00;93.10;;;;;;5014321;28;20033;-75
2020/12/04 01:12:42;;;;;;;5.38;2.30;;;6.90;93.10;;;;;;5015127;28;20022;-75
2020/12/04 01:15:08;;;;;;;3.92;2.55;;;7.00;93.10;;;;;;5014265;28;20029;-75
2020/12/04 01:17:35;;;;;;;8.43;3.33;;;7.00;93.10;;;;;;5014969;28;20034;-75
2020/12/04 01:20:00;;;;;;;7.32;2.95;;;6.90;93.10;;;;;;5015617;28;20025;-76
2020/12/04 01:22:26;;;;;;;6.00;2.88;;;6.90;93.10;;;;;;5014204;28;20029;-75
2020/12/04 01:24:52;;;;;;;8.25;3.25;;;6.90;93.10;;;;;;5014875;28;20573;-74
2020/12/04 01:27:17;;;;;;;8.73;2.60;;;7.00;93.10;;;;;;5013826;28;20029;-75
2020/12/04 01:29:44;;;;;;;5.78;2.50;;;7.00;93.10;;;;;;5014907;28;20030;-75
2020/12/04 01:32:10;;;;;;;6.13;2.55;;;7.00;93.00;;;;;;5014019;28;20040;-75
2020/12/04 01:34:35;;;;;;;4.60;1.80;;;7.00;93.00;;;;;;5013138;28;20466;-75
2020/12/04 01:37:01;;;;;;;7.25;2.78;;;7.00;93.00;;;;;;5014961;28;20030;-75
2020/12/04 01:39:27;;;;;;;4.05;2.08;;;7.00;92.90;;;;;;5014908;28;20018;-75
2020/12/04 01:41:52;;;;;;;6.35;2.45;;;7.00;93.00;;;;;;5014535;28;20422;-75
2020/12/04 01:44:18;;;;;;;5.10;2.25;;;7.00;93.20;;;;;;5015093;28;20385;-75
2020/12/04 01:46:44;;;;;;;11.18;3.15;;;7.00;92.90;;;;;;5012890;28;20026;-75
2020/12/04 01:49:10;;;;;;;6.15;3.13;;;7.00;92.80;;;;;;5013803;28;20076;-75
2020/12/04 01:51:36;;;;;;;7.47;3.20;;;7.00;92.90;;;;;;5014627;28;20030;-75
2020/12/04 01:54:03;;;;;;;4.63;2.03;;;7.00;92.90;;;;;;5013572;28;20022;-74
2020/12/04 01:56:37;;;;;;;6.95;2.92;;;7.00;92.90;;;;;;5013333;28;20058;-74
2020/12/04 01:59:04;;;;;;;7.38;2.35;;;7.00;92.90;;;;;;5013788;28;20029;-75
2020/12/04 02:01:34;;;;;;;6.43;2.08;;;7.00;92.90;;;;;;5013446;28;20088;-79
2020/12/04 02:03:59;;;;;;;5.88;2.83;;;7.00;92.90;;;;;;5014689;28;20462;-75
2020/12/04 02:06:55;;;;;;;6.88;2.42;;;7.00;92.90;;;;;;5013493;28;20033;-74
2020/12/04 02:09:25;;;;;;;5.60;2.58;;;7.00;93.00;;;;;;5010328;28;20045;-74
2020/12/04 02:11:54;;;;;;;7.88;2.47;;;7.00;92.90;;;;;;5014094;28;20576;-74
2020/12/04 02:14:20;;;;;;;5.32;2.63;;;7.00;92.90;;;;;;5013041;28;20358;-75
2020/12/04 02:16:46;;;;;;;5.70;2.15;;;7.00;92.90;;;;;;5013659;28;20525;-75
2020/12/04 02:19:12;;;;;;;7.38;2.65;;;7.00;92.90;;;;;;5029829;28;20030;-75
2020/12/04 02:21:39;;;;;;;6.72;1.90;;;7.00;92.90;;;;;;5013833;28;20109;-75
2020/12/04 02:24:05;;;;;;;3.67;1.73;;;7.00;92.90;;;;;;5014316;28;20160;-74
2020/12/04 02:26:34;;;;;;;7.38;2.20;;;7.00;92.80;;;;;;5029294;28;20374;-79
2020/12/04 02:29:03;;;;;;;4.75;1.77;;;7.00;92.80;;;;;;5029487;28;20022;-75
2020/12/04 02:31:29;;;;;;;6.68;2.38;;;7.00;92.80;;;;;;5013976;28;20029;-74
2020/12/04 02:33:55;;;;;;;7.95;2.63;;;7.00;93.20;;;;;;5028809;28;20022;-75
2020/12/04 02:36:20;;;;;;;4.78;2.38;;;7.00;92.90;;;;;;5029199;28;20478;-74
2020/12/04 02:38:46;;;;;;;4.50;2.40;;;7.00;92.90;;;;;;5013519;28;20478;-74
2020/12/04 02:41:12;;;;;;;5.35;2.05;;;7.00;92.90;;;;;;5014360;28;20029;-74
2020/12/04 02:43:38;;;;;;;3.67;1.77;;;7.00;92.90;;;;;;5028600;28;20470;-74
2020/12/04 02:46:07;;;;;;;6.05;2.40;;;7.00;92.90;;;;;;5013952;28;20030;-74
2020/12/04 02:48:33;;;;;;;6.80;2.38;;;7.00;92.90;;;;;;5028731;28;20032;-79
2020/12/04 02:50:59;;;;;;;5.05;2.90;;;7.00;92.90;;;;;;5029040;28;20504;-74
2020/12/04 02:53:25;;;;;;;6.45;2.42;;;6.90;92.90;;;;;;5028602;28;20131;-74
2020/12/04 02:55:51;;;;;;;6.53;1.85;;;6.90;92.90;;;;;;5027821;28;20050;-74
2020/12/04 02:58:16;;;;;;;5.05;2.35;;;6.90;92.90;;;;;;5013498;28;20466;-74
2020/12/04 03:00:42;;;;;;;5.13;1.92;;;6.90;92.90;;;;;;5013135;28;20045;-74
2020/12/04 03:03:08;;;;;;;3.10;1.80;;;6.90;92.90;;;;;;5028796;28;20034;-74
2020/12/04 03:05:33;;;;;;;2.85;2.15;;;7.00;93.00;;;;;;5013603;28;20022;-74
2020/12/04 03:07:59;;;;;;;3.92;2.15;;;6.90;92.90;;;;;;5013616;28;20022;-74
2020/12/04 03:10:25;;;;;;;4.90;2.30;;;7.00;92.90;;;;;;5028604;28;20021;-74
2020/12/04 03:12:50;;;;;;;4.50;1.77;;;7.00;92.90;;;;;;5027954;28;20030;-75
2020/12/04 03:15:16;;;;;;;5.32;2.10;;;7.00;92.90;;;;;;5028509;28;20022;-75
2020/12/04 03:17:41;;;;;;;4.05;1.77;;;7.00;92.90;;;;;;5027922;28;20068;-75
2020/12/04 03:20:07;;;;;;;5.45;2.00;;;7.00;92.90;;;;;;5013395;28;20442;-75
2020/12/04 03:22:33;;;;;;;5.95;1.77;;;7.00;92.80;;;;;;5028521;28;20018;-75
2020/12/04 03:24:58;;;;;;;2.38;1.50;;;7.00;92.80;;;;;;5012756;28;20036;-75
2020/12/04 03:27:24;;;;;;;2.70;1.30;;;7.00;92.80;;;;;;5016473;28;20048;-76
2020/12/04 03:29:49;;;;;;;3.17;1.63;;;7.00;92.80;;;;;;5031588;28;20075;-74
2020/12/04 03:32:15;;;;;;;5.95;1.80;;;7.00;92.80;;;;;;5047092;28;20021;-74
2020/12/04 03:34:42;;;;;;;6.10;2.08;;;7.00;92.80;;;;;;5029692;28;20029;-74
2020/12/04 03:37:08;;;;;;;3.08;1.33;;;7.00;92.90;;;;;;5047136;28;20041;-74
2020/12/04 03:39:35;;;;;;;5.57;2.42;;;7.00;92.90;;;;;;5046810;28;20017;-74
2020/12/04 03:42:01;;;;;;;7.32;2.47;;;7.00;92.90;;;;;;5031748;28;20052;-74
2020/12/04 03:44:26;;;;;;;4.90;2.00;;;6.90;92.80;;;;;;5030047;28;20067;-76
2020/12/04 03:46:52;;;;;;;5.18;1.90;;;7.00;92.90;;;;;;5045955;28;20067;-76
2020/12/04 03:49:18;;;;;;;3.88;1.58;;;7.00;93.20;;;;;;5030417;28;20029;-77
2020/12/04 03:51:43;;;;;;;4.55;1.63;;;6.90;92.90;;;;;;5046323;28;20462;-76
2020/12/04 03:54:15;;;;;;;3.25;1.58;;;7.00;92.90;;;;;;5047617;28;20022;-76
2020/12/04 03:56:41;;;;;;;5.22;2.10;;;7.00;92.90;;;;;;5031539;28;20057;-76
2020/12/04 03:59:07;;;;;;;5.97;1.75;;;7.00;92.90;;;;;;5031806;28;20025;-76
2020/12/04 04:01:34;;;;;;;4.30;1.95;;;7.00;92.80;;;;;;5047662;28;20028;-75
2020/12/04 04:04:00;;;;;;;3.80;1.63;;;7.00;92.80;;;;;;5031723;28;20066;-76
2020/12/04 04:06:26;;;;;;;6.55;2.05;;;7.10;92.80;;;;;;5032573;28;20060;-74
2020/12/04 04:08:52;;;;;;;4.22;1.80;;;7.10;92.80;;;;;;5046875;28;20112;-74
2020/12/04 04:11:17;;;;;;;4.25;1.92;;;7.10;92.80;;;;;;5032122;28;20024;-74
2020/12/04 04:13:43;;;;;;;3.95;1.95;;;7.10;92.70;;;;;;5030323;28;20017;-74
2020/12/04 04:16:09;;;;;;;5.72;2.05;;;7.10;92.70;;;;;;5032051;28;20034;-74
2020/12/04 04:18:34;;;;;;;6.70;2.65;;;7.10;92.70;;;;;;5047413;28;20026;-74
2020/12/04 04:21:01;;;;;;;4.18;1.98;;;7.00;92.70;;;;;;5031187;28;20400;-74
2020/12/04 04:23:27;;;;;;;5.25;2.05;;;7.00;92.70;;;;;;5032074;28;20402;-74
2020/12/04 04:25:53;;;;;;;3.67;2.03;;;7.00;92.70;;;;;;5030101;28;20465;-74
2020/12/04 04:28:19;;;;;;;5.75;2.10;;;7.00;92.70;;;;;;5032069;28;20029;-75
2020/12/04 04:30:45;;;;;;;6.93;2.10;;;7.00;92.70;;;;;;5046549;28;20026;-74
2020/12/04 04:33:10;;;;;;;4.43;2.00;;;7.00;92.70;;;;;;5047262;28;20509;-75
2020/12/04 04:35:37;;;;;;;5.47;2.15;;;7.00;92.70;;;;;;5032010;28;20092;-74
2020/12/04 04:38:03;;;;;;;3.38;2.25;;;7.00;93.00;;;;;;5047185;28;20028;-73
2020/12/04 04:40:30;;;;;;;3.92;1.70;;;7.00;92.70;;;;;;5031703;28;20021;-75
2020/12/04 04:43:08;;;;;;;3.95;2.13;;;7.00;92.70;;;;;;5046565;28;20058;-75
2020/12/04 04:45:35;;;;;;;7.13;1.90;;;7.00;92.70;;;;;;5047085;28;20061;-75
2020/12/04 04:48:09;;;;;;;5.22;1.80;;;7.00;92.70;;;;;;5046442;28;20465;-75
2020/12/04 04:50:35;;;;;;;8.07;3.38;;;7.10;92.70;;;;;;5031750;28;20022;-75
2020/12/04 04:53:02;;;;;;;4.63;1.92;;;7.00;92.70;;;;;;5031184;28;20033;-74
2020/12/04 04:55:28;;;;;;;2.55;1.95;;;7.10;92.70;;;;;;5031904;28;20480;-74
2020/12/04 04:57:58;;;;;;;5.10;2.45;;;7.00;92.70;;;;;;5031415;28;20022;-74
2020/12/04 05:00:25;;;;;;;2.60;1.53;;;7.10;92.70;;;;;;5047334;28;20163;-74
2020/12/04 05:02:50;;;;;;;5.47;2.15;;;7.10;92.70;;;;;;5031320;28;20264;-76
2020/12/04 05:05:16;;;;;;;6.38;2.08;;;7.10;92.70;;;;;;5047210;28;20160;-75
2020/12/04 05:07:42;;;;;;;1.70;1.50;;;7.10;92.70;;;;;;5029817;28;20021;-74
2020/12/04 05:10:16;;;;;;;4.53;1.70;;;7.10;92.70;;;;;;5029818;28;20445;-75
2020/12/04 05:12:44;;;;;;;2.90;1.45;;;7.10;92.70;;;;;;5029352;28;20028;-74
2020/12/04 05:15:23;;;;;;;6.65;2.25;;;7.10;92.70;;;;;;5029076;28;20026;-74
2020/12/04 05:18:12;;;;;;;4.28;1.60;;;7.10;92.70;;;;;;5044039;28;20026;-74
2020/12/04 05:20:41;;;;;;;4.65;1.95;;;7.10;92.70;;;;;;5030611;28;20026;-76
2020/12/04 05:23:07;;;;;;;3.35;1.63;;;7.00;92.80;;;;;;5048379;28;20469;-76
2020/12/04 05:25:41;;;;;;;4.35;2.10;;;7.00;92.80;;;;;;5033059;28;20041;-75
2020/12/04 05:28:18;;;;;;;4.53;1.73;;;7.00;92.80;;;;;;5048269;28;20473;-76
2020/12/04 05:31:05;;;;;;;4.15;1.90;;;7.00;92.90;;;;;;5032100;28;20028;-75
2020/12/04 05:33:31;;;;;;;6.00;1.70;;;6.90;92.90;;;;;;5032577;28;20041;-75
2020/12/04 05:35:58;;;;;;;1.95;1.20;;;6.90;92.90;;;;;;5030658;28;20377;-74
2020/12/04 05:38:24;;;;;;;4.53;1.42;;;6.90;92.90;;;;;;5032694;28;20034;-74
2020/12/04 05:41:01;;;;;;;4.75;2.38;;;6.90;92.90;;;;;;5030843;28;20021;-75
2020/12/04 05:43:32;;;;;;;2.53;1.48;;;7.00;92.90;;;;;;5031421;28;20026;-75
2020/12/04 05:46:20;;;;;;;2.83;1.10;;;7.00;92.80;;;;;;5031900;28;20052;-75
2020/12/04 05:49:04;;;;;;;4.93;2.30;;;7.00;92.80;;;;;;5031867;28;20642;-75
2020/12/04 05:51:32;;;;;;;3.75;1.63;;;7.00;92.80;;;;;;5032677;28;20014;-74
2020/12/04 05:53:58;;;;;;;2.60;1.60;;;7.00;92.80;;;;;;5030682;28;20040;-75
2020/12/04 05:56:25;;;;;;;5.07;1.55;;;6.90;92.90;;;;;;5042483;28;20114;-75
2020/12/04 05:58:55;;;;;;;5.28;2.42;;;7.00;92.90;;;;;;5031306;28;20148;-74
2020/12/04 06:01:22;;;;;;;4.43;1.77;;;7.00;92.90;;;;;;5031718;28;20021;-74
2020/12/04 06:03:51;;;;;;;2.53;1.42;;;7.00;92.90;;;;;;5031935;28;20076;-73
2020/12/04 06:06:27;;;;;;;3.35;1.38;;;7.00;92.90;;;;;;5025506;28;20116;-74
2020/12/04 06:08:59;;;;;;;4.22;1.60;;;7.00;92.80;;;;;;5012519;28;20025;-74
2020/12/04 06:11:29;;;;;;;;;;;7.00;92.80;;;;;;5011748;28;20145;-74
2020/12/04 06:13:57;;;;;;;1.75;1.25;;;7.00;92.80;;;;;;5011194;28;19936;-74
2020/12/04 06:16:23;;;;;;;3.35;1.80;;;7.00;92.80;;;;;;5012593;28;20022;-75
2020/12/04 06:18:49;;;;;;;4.78;1.92;;;7.00;92.90;;;;;;5013704;28;20075;-76
2020/12/04 06:21:15;;;;;;;3.33;1.30;;;7.00;92.90;;;;;;5012717;28;20033;-75
2020/12/04 06:24:05;;;;;;;3.67;1.58;;;7.00;92.90;;;;;;5013060;28;20028;-76
2020/12/04 06:26:50;;;;;;;2.87;1.30;;;7.00;92.80;;;;;;5013196;28;20033;-74
2020/12/04 06:29:19;;;;;;;4.75;1.80;;;6.90;92.80;;;;;;5029404;28;20475;-74
2020/12/04 06:31:45;;;;;;;2.58;1.38;;;7.00;92.80;;;;;;5012908;28;20026;-82
2020/12/04 06:34:21;;;;;;;3.72;2.03;;;7.00;92.90;;;;;;5014229;28;20080;-75
2020/12/04 06:36:48;;;;;;;4.18;1.40;;;7.00;92.80;;;;;;5013260;28;20461;-75
2020/12/04 06:39:31;;;;;;;3.92;1.40;;;7.00;92.80;;;;;;5012818;28;20497;-74
2020/12/04 06:41:58;;;;;;;2.50;1.55;;;7.10;92.70;;;;;;5013349;28;20028;-74
2020/12/04 06:44:26;;;;;;;2.72;1.25;;;7.10;92.70;;;;;;5013993;28;20022;-75
2020/12/04 06:46:59;;;;;;;3.78;1.13;;;7.10;92.70;;;;;;5012174;28;20066;-75
2020/12/04 06:49:37;;;;;;;7.03;1.58;;;7.20;92.70;;;;;;5029238;28;20365;-74
2020/12/04 06:52:09;;;;;;;3.70;1.42;;;7.20;92.60;;;;;;5011645;28;20030;-73
2020/12/04 06:54:40;;;;;;;4.32;1.45;;;7.20;92.60;;;;;;5012361;28;20446;-74
2020/12/04 06:57:07;;;;;;;4.97;1.48;;;7.20;92.60;;;;;;5013293;28;20439;-75
2020/12/04 06:59:36;;;;;;;3.20;1.20;;;7.20;92.50;;;;;;5012561;28;20412;-74
2020/12/04 07:02:05;;;;;;;2.50;1.23;;;7.30;92.60;;;;;;5013159;28;20064;-76
2020/12/04 07:04:32;;;;;;;3.88;1.85;;;7.30;92.50;;;;;;5012268;28;20088;-76
2020/12/04 07:07:09;;;;;;;2.30;1.55;;;7.30;92.50;;;;;;5013121;28;20025;-75
2020/12/04 07:09:36;;;;;;;3.40;1.60;;;7.30;92.50;;;;;;5012196;28;20072;-74
2020/12/04 07:12:03;;;;;;;3.03;1.20;;;7.30;92.50;;;;;;5011584;28;20079;-74
2020/12/04 07:14:29;;;;;;;1.58;1.00;;;7.40;92.40;;;;;;5013415;28;20118;-74
2020/12/04 07:16:55;;;;;;;4.88;1.63;;;7.40;92.40;;;;;;5012872;28;20018;-74
2020/12/04 07:19:22;;;;;;;2.67;1.13;;;7.40;92.40;;;;;;5012306;28;20022;-74
2020/12/04 07:21:48;;;;;;;1.90;1.20;;;7.40;92.40;;;;;;5012712;28;20069;-80
2020/12/04 07:24:14;;;;;;;1.70;0.93;;;7.50;92.40;;;;;;5012107;28;20025;-74
2020/12/04 07:26:48;;;;;;;1.40;0.80;;;7.50;92.40;;;;;;5011938;28;20390;-74
2020/12/04 07:29:14;;;;;;;3.20;1.75;;;7.50;92.60;;;;;;5014025;28;20030;-75
2020/12/04 07:31:49;;;;;;;2.33;1.10;;;7.50;92.40;;;;;;5028601;28;20026;-76
2020/12/04 07:34:19;;;;;;;2.28;1.23;;;7.60;92.40;;;;;;5013133;28;20033;-74
2020/12/04 07:36:50;;;;;;;3.27;1.20;;;7.60;92.40;;;;;;5011488;28;20034;-74
2020/12/04 07:39:24;;;;;;;4.13;1.45;;;7.60;92.40;;;;;;5011612;28;20026;-74
2020/12/04 07:41:50;;;;;;;3.40;1.40;;;7.60;92.40;;;;;;5012392;28;20049;-75
2020/12/04 07:44:17;;;;;;;2.67;1.20;;;7.60;92.30;;;;;;5011621;28;20080;-74
2020/12/04 07:46:42;;;;;;;2.20;1.02;;;7.60;92.30;;;;;;5012834;28;20037;-74
2020/12/04 07:49:16;;;;;;;2.35;1.48;;;7.60;92.30;;;;;;5012070;28;20097;-74
2020/12/04 07:51:42;;;;;;;1.50;0.88;;;7.60;92.30;;;;;;5011578;28;20108;-74
2020/12/04 07:54:23;;;;;;;1.42;1.15;;;7.70;92.30;;;;;;5012160;28;20097;-74
2020/12/04 07:56:54;;;;;;;3.13;1.63;;;7.70;92.30;;;;;;5012463;28;20037;-79
2020/12/04 07:59:31;;;;;;;1.70;1.33;;;7.70;92.30;;;;;;5012621;28;20026;-74
2020/12/04 08:01:59;;;;;;;1.48;1.10;;;7.70;92.30;;;;;;5012118;28;20264;-74
2020/12/04 08:04:24;;;;;;;1.65;0.95;;;7.60;92.40;;;;;;5011325;28;20050;-74
2020/12/04 08:06:50;;;;;;;1.73;0.82;;;7.60;92.40;;;;;;5010762;28;20390;-81
2020/12/04 08:09:18;;;;;;;2.60;1.58;;;7.60;92.40;;;;;;5011177;28;20022;-75
2020/12/04 08:12:04;;;;;;;1.40;0.77;;;7.70;92.40;;;;;;5011181;28;20527;-75
2020/12/04 08:14:29;;;;;;;1.85;0.98;;;7.70;92.30;;;;;;5012340;28;20085;-75
2020/12/04 08:16:59;;;;;;;1.45;0.73;;;7.70;92.30;;;;;;5011541;28;20030;-75
2020/12/04 08:19:28;;;;;;;1.38;0.80;;;7.80;92.30;;;;;;5010979;28;20485;-74
2020/12/04 08:22:08;;;;;;;1.42;0.85;;;7.80;92.20;;;;;;5027018;28;20022;-76
2020/12/04 08:24:35;;;;;;;1.70;1.23;;;7.90;92.30;;;;;;5011087;28;20113;-75
2020/12/04 08:27:09;;;;;;;3.40;1.75;;;7.80;92.20;;;;;;5011694;28;20084;-75
2020/12/04 08:29:37;;;;;;;1.77;1.02;;;7.90;92.20;;;;;;5011427;28;20022;-75
2020/12/04 08:32:12;;;;;;;1.38;0.85;;;7.90;92.40;;;;;;5010405;28;20117;-75
2020/12/04 08:34:38;;;;;;;1.17;0.73;;;7.90;92.10;;;;;;5011010;28;20037;-75
2020/12/04 08:37:12;;;;;;;1.17;0.73;;;7.90;92.10;;;;;;5011697;28;20037;-75
2020/12/04 08:39:48;;;;;;;1.73;1.00;;;8.00;92.20;;;;;;5012218;28;20044;-75
2020/12/04 08:42:18;;;;;;;1.33;0.77;;;8.00;92.10;;;;;;5010439;28;20462;-75
2020/12/04 08:44:56;;;;;;;3.60;1.77;;;8.00;92.10;;;;;;5010592;28;20076;-75
2020/12/04 08:47:43;;;;;;;1.58;0.88;;;8.00;92.00;;;;;;5027315;28;20045;-75
2020/12/04 08:50:11;;;;;;;1.40;0.90;;;8.00;92.00;;;;;;5010210;28;20076;-75
2020/12/04 08:52:42;;;;;;;0.95;0.80;;;7.90;92.00;;;;;;5010680;28;20022;-75
2020/12/04 08:55:14;;;;;;;2.13;0.95;;;7.90;92.10;;;;;;5011333;28;20033;-75
2020/12/04 08:57:41;;;;;;;1.42;0.68;;;7.90;92.20;;;;;;5015713;28;20052;-75
2020/12/04 09:00:09;;;;;;;2.30;0.88;;;7.80;92.30;;;;;;5015363;28;20029;-75
2020/12/04 09:02:37;;;;;;;0.55;0.52;;;7.80;92.40;;;;;;5014523;28;20535;-75
2020/12/04 09:05:05;;;;;;;1.35;1.00;;;7.80;92.50;;;;;;5015144;28;20497;-75
2020/12/04 09:07:30;;;;;;;2.55;0.70;;;7.80;92.50;;;;;;5015979;28;20530;-75
2020/12/04 09:09:56;;;;;;;1.50;0.85;;;7.80;92.50;;;;;;5013806;28;20117;-76
2020/12/04 09:12:24;;;;;;;1.85;1.00;;;7.80;92.50;;;;;;5015359;28;20080;-75
2020/12/04 09:14:49;;;;;;;1.95;1.00;;;7.80;92.50;;;;;;5015712;28;20121;-76
2020/12/04 09:17:16;;;;;;;1.50;1.00;;;7.80;92.50;;;;;;5015083;28;20452;-75
2020/12/04 09:19:42;;;;;;;1.15;0.85;;;7.80;92.50;;;;;;5014545;28;20026;-74
2020/12/04 09:22:08;;;;;;;3.00;1.17;;;7.90;92.50;;;;;;5014880;28;20387;-75
2020/12/04 09:24:33;;;;;;;1.33;0.80;;;8.00;92.40;;;;;;5014378;28;20029;-74
2020/12/04 09:26:59;;;;;;;0.90;0.70;;;8.10;92.30;;;;;;5014942;28;20022;-75
2020/12/04 09:29:25;;;;;;;1.80;0.90;;;8.10;92.20;;;;;;5015426;28;20427;-74
2020/12/04 09:31:50;;;;;;;1.45;0.90;;;8.20;92.20;;;;;;5015103;28;20378;-75
2020/12/04 09:34:16;;;;;;;1.25;1.00;;;8.30;92.10;;;;;;5014822;28;20029;-75
2020/12/04 09:36:41;;;;;;;2.75;1.05;;;8.30;92.10;;;;;;5015028;28;20041;-75
2020/12/04 09:39:07;;;;;;;2.05;1.00;;;8.40;92.00;;;;;;5013503;28;20037;-75
2020/12/04 09:41:40;;;;;;;2.97;0.77;;;8.40;92.00;;;;;;5013847;28;20087;-75
2020/12/04 09:44:06;;;;;;;1.13;0.77;;;8.40;91.90;;;;;;5013669;28;20417;-75
2020/12/04 09:46:31;;;;;;;1.38;0.88;;;8.40;91.90;;;;;;5016298;28;20025;-76
2020/12/04 09:48:57;;;;;;;1.02;0.55;;;8.50;91.90;;;;;;5014650;28;20026;-76
2020/12/04 09:51:23;;;;;;;0.82;0.60;;;8.50;91.90;;;;;;5015086;28;20021;-75
2020/12/04 09:53:48;;;;;;;1.42;0.60;;;8.50;91.90;;;;;;5013618;28;20022;-75
2020/12/04 09:56:14;;;;;;;2.40;0.80;;;8.60;91.80;;;;;;5013910;28;20037;-75
2020/12/04 09:58:39;;;;;;;1.17;0.60;;;8.60;91.80;;;;;;5014466;28;20046;-75
2020/12/04 10:01:05;;;;;;;0.52;0.52;;;8.70;91.80;;;;;;5014225;28;20141;-75
2020/12/04 10:03:31;;;;;;;2.15;0.60;;;8.70;91.80;;;;;;5014727;28;20022;-75
2020/12/04 10:05:56;;;;;;;1.02;0.40;;;8.70;91.80;;;;;;5014723;28;20470;-75
2020/12/04 10:08:22;;;;;;;0.50;0.43;;;8.70;91.80;;;;;;5014674;28;20053;-75
2020/12/04 10:10:48;;;;;;;0.70;0.70;;;8.80;91.70;;;;;;5014767;28;20480;-75
2020/12/04 10:13:13;;;;;;;1.08;0.60;;;8.80;91.70;;;;;;5013952;28;20508;-75
2020/12/04 10:15:39;;;;;;;0.55;0.55;;;8.80;91.70;;;;;;5014468;28;20488;-75
2020/12/04 10:18:07;;;;;;;0.40;0.40;;;8.80;91.60;;;;;;5012698;28;20030;-75
2020/12/04 10:20:32;;;;;;;0.50;0.50;;;8.80;91.60;;;;;;5013037;28;20112;-75
2020/12/04 10:22:58;;;;;;;0.40;0.40;;;8.80;91.50;;;;;;5014200;28;20446;-81
2020/12/04 10:25:24;;;;;;;0.50;0.50;;;8.90;91.50;;;;;;5014390;28;20117;-75
2020/12/04 10:27:49;;;;;;;0.50;0.50;;;8.90;91.40;;;;;;5014345;28;20033;-75
2020/12/04 10:30:15;;;;;;;0.50;0.40;;;9.00;91.40;;;;;;5012480;28;20030;-75
2020/12/04 10:32:41;;;;;;;0.45;0.45;;;9.00;91.30;;;;;;5014020;28;20469;-75
2020/12/04 10:35:06;;;;;;;1.73;0.35;;;9.00;91.20;;;;;;5013741;28;20033;-75
2020/12/04 10:37:32;;;;;;;0.50;0.50;;;9.00;91.20;;;;;;5014195;28;20492;-75
2020/12/04 10:39:57;;;;;;;0.63;0.40;;;9.10;91.10;;;;;;5014130;28;20064;-75
2020/12/04 10:42:23;;;;;;;0.50;0.50;;;9.10;91.00;;;;;;5012263;28;20052;-75
2020/12/04 10:44:48;;;;;;;0.93;0.52;;;9.10;90.90;;;;;;5013685;28;20386;-75
2020/12/04 10:47:14;;;;;;;1.00;0.38;;;9.10;90.90;;;;;;5013388;28;20018;-75
2020/12/04 10:49:40;;;;;;;0.57;0.40;;;9.10;90.80;;;;;;5013865;28;20030;-75
2020/12/04 10:52:05;;;;;;;1.38;0.40;;;9.10;90.60;;;;;;5013178;28;20477;-75
2020/12/04 10:54:31;;;;;;;0.77;0.60;;;9.10;90.60;;;;;;5013703;28;20359;-75
2020/12/04 10:56:57;;;;;;;0.40;0.40;;;9.10;90.60;;;;;;5013372;28;20128;-75
2020/12/04 10:59:23;;;;;;;1.27;0.50;;;9.10;90.20;;;;;;5028295;28;20026;-74
2020/12/04 11:01:58;;;;;;;0.45;0.40;;;9.10;90.00;;;;;;5013683;28;20101;-74
2020/12/04 11:07:07;;;;;;;1.23;0.65;;;9.10;89.40;;;;;;5012675;28;20168;-74
2020/12/04 11:09:33;;;;;;;0.68;0.55;;;9.20;88.60;;;;;;5012027;28;20061;-74
2020/12/04 11:11:59;;;;;;;0.63;0.50;;;9.20;88.60;;;;;;5013491;28;20030;-74
2020/12/04 11:14:24;;;;;;;0.75;0.38;;;9.30;88.70;;;;;;5011267;28;20108;-74
2020/12/04 11:16:50;;;;;;;0.38;0.38;;;9.30;88.70;;;;;;5013456;28;20026;-74
2020/12/04 11:19:16;;;;;;;0.40;0.40;;;9.30;88.60;;;;;;5011862;28;20029;-74
2020/12/04 11:21:41;;;;;;;0.40;0.40;;;9.30;88.20;;;;;;5011591;28;20429;-74
2020/12/04 11:24:07;;;;;;;1.75;0.40;;;9.30;88.00;;;;;;5011389;28;20057;-74
2020/12/04 11:26:32;;;;;;;0.77;0.50;;;9.30;88.10;;;;;;5012944;28;20061;-75
2020/12/04 11:28:59;;;;;;;0.73;0.60;;;9.30;88.00;;;;;;5012825;28;20052;-74
2020/12/04 11:31:24;;;;;;;0.40;0.40;;;9.40;88.10;;;;;;5012511;28;20037;-74
2020/12/04 11:33:50;;;;;;;2.55;0.90;;;9.50;88.50;;;;;;5011756;28;20026;-74
2020/12/04 11:36:16;;;;;;;0.88;0.60;;;9.50;88.00;;;;;;5010924;28;20081;-74
2020/12/04 11:38:41;;;;;;;0.85;0.38;;;9.50;88.20;;;;;;5013204;28;20129;-75
2020/12/04 11:41:07;;;;;;;0.30;0.30;;;9.60;88.30;;;;;;5011097;28;20025;-75
2020/12/04 11:43:33;;;;;;;0.38;0.38;;;9.60;87.90;;;;;;5011502;28;20516;-75
2020/12/04 11:46:00;;;;;;;0.52;0.50;;;9.60;87.80;;;;;;5012958;28;20052;-75
2020/12/04 11:48:25;;;;;;;0.40;0.40;;;9.70;87.30;;;;;;5010970;28;20025;-75
2020/12/04 11:50:51;;;;;;;0.30;0.30;;;9.60;86.90;;;;;;5012734;28;20030;-74
2020/12/04 11:53:17;;;;;;;0.55;0.55;;;9.60;87.30;;;;;;5010842;28;20041;-74
2020/12/04 11:55:42;;;;;;;0.52;0.50;;;9.60;86.90;;;;;;5011322;28;20030;-75
2020/12/04 11:58:09;;;;;;;1.17;0.45;;;9.60;86.50;;;;;;5010652;28;20073;-75
2020/12/04 12:00:34;;;;;;;0.60;0.50;;;9.70;86.70;;;;;;5012229;28;20065;-75
2020/12/04 12:03:00;;;;;;;0.30;0.30;;;9.70;86.60;;;;;;5011435;28;20121;-75
2020/12/04 12:05:26;;;;;;;0.40;0.40;;;9.70;86.70;;;;;;5012189;28;20104;-75
2020/12/04 12:07:51;;;;;;;0.70;0.63;;;9.70;86.70;;;;;;5012489;28;20025;-75
2020/12/04 12:10:17;;;;;;;0.75;0.47;;;9.80;86.60;;;;;;5012099;28;20060;-75
2020/12/04 12:12:43;;;;;;;0.95;0.60;;;9.90;86.70;;;;;;5012056;28;20053;-75
2020/12/04 12:15:10;;;;;;;0.95;0.45;;;10.00;86.30;;;;;;5010330;28;20030;-75
2020/12/04 12:17:35;;;;;;;0.38;0.38;;;10.00;85.80;;;;;;5011101;28;20018;-75
2020/12/04 12:20:01;;;;;;;0.70;0.43;;;10.00;85.80;;;;;;5012317;28;20096;-74
2020/12/04 12:22:27;;;;;;;3.00;0.52;;;10.10;85.80;;;;;;5010347;28;20118;-75
2020/12/04 12:24:53;;;;;;;0.38;0.38;;;10.10;85.90;;;;;;5012535;28;20469;-75
2020/12/04 12:27:18;;;;;;;0.40;0.40;;;10.10;86.10;;;;;;5010308;28;20424;-75
2020/12/04 12:29:45;;;;;;;0.57;0.50;;;10.10;86.20;;;;;;5011428;28;20105;-75
2020/12/04 12:32:11;;;;;;;0.40;0.32;;;10.10;86.30;;;;;;5011385;28;20076;-73
2020/12/04 12:37:20;;;;;;;0.85;0.55;;;10.10;86.50;;;;;;5011754;28;20095;-75
2020/12/04 12:39:46;;;;;;;0.45;0.45;;;10.10;86.50;;;;;;5012176;28;20026;-75
2020/12/04 12:42:17;;;;;;;0.40;0.40;;;10.10;86.50;;;;;;5011435;28;20026;-75
2020/12/04 12:44:43;;;;;;;0.55;0.55;;;10.10;86.60;;;;;;5010883;28;20022;-73
2020/12/04 12:47:10;;;;;;;0.30;0.30;;;10.00;86.40;;;;;;5011564;28;20029;-75
2020/12/04 12:49:36;;;;;;;0.30;0.30;;;10.00;86.60;;;;;;5012048;28;20101;-74
2020/12/04 12:52:02;;;;;;;0.40;0.40;;;9.90;86.30;;;;;;5012109;28;20018;-75
2020/12/04 12:54:29;;;;;;;0.40;0.40;;;9.90;86.50;;;;;;5011197;28;20426;-75
2020/12/04 12:56:55;;;;;;;0.30;0.30;;;9.90;86.60;;;;;;5010657;28;20109;-75
2020/12/04 12:59:25;;;;;;;0.30;0.30;;;9.90;87.30;;;;;;5010295;28;20442;-75
2020/12/04 13:01:52;;;;;;;0.32;0.32;;;9.90;86.80;;;;;;5010706;28;20022;-75
2020/12/04 13:04:17;;;;;;;0.40;0.40;;;9.90;86.70;;;;;;5011178;28;20022;-75
2020/12/04 13:06:44;;;;;;;0.30;0.30;;;9.90;86.50;;;;;;5011835;28;20032;-75